Mensagens

A mostrar mensagens de Abril, 2008

Liberalização das rotas aéreas

Muito se tem falado na possibilidade da liberalização das rotas do Continente para os Açores nos últimos tempos, e muitas têm sido as vozes que a reclamam, criticando o modelo actual principalmente por causa dos preços praticados.
Nem passou uma semana sobre a liberalização da rota para a Madeira, e depois dos anúncios com pompa e circunstância das tarifas promocionais, já se fala em voltar ao modelo antigo, porque o que ninguém se lembrou de dizer antes, é que as tarifas promocionais são limitadas e têm muitas restrições que os residentes não estavam habituados a ter. Além disso, se não se puder reservar um lugar atempadamente, as tarifas facilmente ascendem a valores na ordem dos 400 euros, muito mais do que pagava um residente anteriormente. Ou seja, a liberalização beneficiará mais, em termos de preços, um turista que planeia as suas férias com 6 meses de antecedência, do que um residente que nem sempre sabe quando vai ter de se deslocar ao Continente. O exemplo da Madeira é recent…

No comment

Mau tempo nos Açores

Como já tenho feito noutras ocasiões de mau tempo, deixo aqui alguns dos piores relatórios METAR do dia 8, das ilhas que os têm disponíveis na internet.

LPHR 081630Z 04034G52KT 9999 SCT016 FEW018TCU SCT080 14/07 Q0997
LPHR 081900Z 04028G46KT 6000 SHRAGS BKN016 SCT018TCU 13/07 Q1001
Neste último, destaque para a chuva de granizo!

LPLA 081600Z 36020G33KT 330V100 7000 3000NW -RA BKN016 OVC070 12/08 Q0998 WHT/WHT RMK CNTR RWY WND 04035G45KT XWND44KT SVR TURB PK WND 36037/29

LPPD 082030Z 03038G56KT 4000 SHRA FEW012 SCT016 FEW020CB BKN200 12/07 Q0991

LPAZ 082230Z 02030G45KT 9999 VCSH FEW010 SCT014 FEW020TCU OVC120 12/09 Q0993

LPFL 081300Z 02021G40KT 9000 -SHRA BKN020 SCT023CB 12/07 Q1007 RMK RWY36 03017G29KT 010V090

Durante a manhã ainda se realizaram alguns voos da SATA Air Açores com três partidas e uma chegada a Ponta Delgada, segundo o site da ANA, mas à tarde não se realizaram quaisquer voos inter-ilhas.
Ponta Delgada terá sido o local onde o tempo esteve pior, com o vento a manter-se forte e n…